createdAt,value
2022-08-23T00:01:18.635Z,16.60
2022-08-23T00:03:48.349Z,16.50
2022-08-23T00:06:15.592Z,16.50
2022-08-23T00:08:49.066Z,16.60
2022-08-23T00:11:39.344Z,16.70
2022-08-23T00:14:13.289Z,16.60
2022-08-23T00:16:40.975Z,16.60
2022-08-23T00:19:10.335Z,16.50
2022-08-23T00:21:38.366Z,16.50
2022-08-23T00:24:07.170Z,16.40
2022-08-23T00:26:58.016Z,16.30
2022-08-23T00:29:29.577Z,16.20
2022-08-23T00:31:56.754Z,16.20
2022-08-23T00:34:23.552Z,16.10
2022-08-23T00:36:50.679Z,16.10
2022-08-23T00:39:18.949Z,16.40
2022-08-23T00:41:48.274Z,16.50
2022-08-23T00:44:51.036Z,16.50
2022-08-23T00:47:37.010Z,16.30
2022-08-23T00:50:23.849Z,16.50
2022-08-23T00:53:06.070Z,16.60
2022-08-23T00:55:34.639Z,16.40
2022-08-23T00:58:01.786Z,16.20
2022-08-23T01:00:29.247Z,16.30
2022-08-23T01:02:57.646Z,16.30
2022-08-23T01:05:41.617Z,16.30
2022-08-23T01:08:08.249Z,16.20
2022-08-23T01:10:47.959Z,16.10
2022-08-23T01:13:24.417Z,16.10
2022-08-23T01:15:59.618Z,15.90
2022-08-23T01:18:28.370Z,15.90
2022-08-23T01:21:10.306Z,16.00
2022-08-23T01:23:53.352Z,15.90
2022-08-23T01:26:22.183Z,15.90
2022-08-23T01:28:49.705Z,15.80
2022-08-23T01:31:18.475Z,15.80
2022-08-23T01:33:49.901Z,15.70
2022-08-23T01:36:17.701Z,15.70
2022-08-23T01:38:44.269Z,15.60
2022-08-23T01:41:11.071Z,15.50
2022-08-23T01:43:37.803Z,15.50
2022-08-23T01:46:13.717Z,15.50
2022-08-23T01:48:41.124Z,15.50
2022-08-23T01:51:07.822Z,15.50
2022-08-23T01:53:34.543Z,15.50
2022-08-23T01:56:03.878Z,15.50
2022-08-23T01:58:32.792Z,15.40
2022-08-23T02:00:59.657Z,15.40
2022-08-23T02:03:26.286Z,15.40
2022-08-23T02:08:43.302Z,15.40
2022-08-23T02:11:12.636Z,15.50
2022-08-23T02:13:39.483Z,15.60
2022-08-23T02:16:06.336Z,15.60
2022-08-23T02:18:33.010Z,15.70
2022-08-23T02:21:00.471Z,15.90
2022-08-23T02:23:27.704Z,15.80
2022-08-23T02:25:54.750Z,15.70
2022-08-23T02:28:23.181Z,15.70
2022-08-23T02:30:50.151Z,15.70
2022-08-23T02:33:16.852Z,15.70
2022-08-23T02:35:44.154Z,15.80
2022-08-23T02:38:12.712Z,15.80
2022-08-23T02:40:40.029Z,15.80
2022-08-23T02:43:06.882Z,15.80
2022-08-23T02:45:34.414Z,15.70
2022-08-23T02:48:01.675Z,15.70
2022-08-23T02:50:28.462Z,15.70
2022-08-23T02:52:55.591Z,15.70
2022-08-23T02:55:22.266Z,15.70
2022-08-23T02:57:49.177Z,15.70
2022-08-23T03:00:17.110Z,15.80
2022-08-23T03:02:43.830Z,15.90
2022-08-23T03:05:11.474Z,15.80
2022-08-23T03:07:38.158Z,15.80
2022-08-23T03:10:06.389Z,15.90
2022-08-23T03:12:33.494Z,15.90
2022-08-23T03:15:00.357Z,15.90
2022-08-23T03:17:27.415Z,15.90
2022-08-23T03:19:54.067Z,15.80
2022-08-23T03:22:23.037Z,15.70
2022-08-23T03:24:50.014Z,15.70
2022-08-23T03:27:16.740Z,15.60
2022-08-23T03:29:43.414Z,15.50
2022-08-23T03:32:10.164Z,15.40
2022-08-23T03:34:36.794Z,15.40
2022-08-23T03:37:03.908Z,15.30
2022-08-23T03:39:30.717Z,15.20
2022-08-23T03:41:57.467Z,15.10
2022-08-23T03:44:24.112Z,15.10
2022-08-23T03:46:51.280Z,15.00
2022-08-23T03:49:17.972Z,15.10
2022-08-23T03:51:44.620Z,15.30
2022-08-23T03:54:11.307Z,15.30
2022-08-23T03:56:40.268Z,15.40
2022-08-23T03:59:09.653Z,15.30
2022-08-23T04:01:36.578Z,15.30
2022-08-23T04:04:03.739Z,15.30
2022-08-23T04:06:31.824Z,15.40
2022-08-23T04:08:58.943Z,15.40
2022-08-23T04:11:26.081Z,15.40
2022-08-23T04:13:52.702Z,15.30
2022-08-23T04:16:19.842Z,15.40
2022-08-23T04:18:46.470Z,15.30
2022-08-23T04:21:19.286Z,15.30
2022-08-23T04:23:45.947Z,15.40
2022-08-23T04:26:12.589Z,15.40
2022-08-23T04:28:40.286Z,15.30
2022-08-23T04:31:07.026Z,15.30
2022-08-23T04:33:34.384Z,15.30
2022-08-23T04:36:02.658Z,15.30
2022-08-23T04:38:29.442Z,15.30
2022-08-23T04:41:15.884Z,15.30
2022-08-23T04:43:44.015Z,15.40
2022-08-23T04:46:10.993Z,15.30
2022-08-23T04:48:37.640Z,15.40
2022-08-23T04:51:04.253Z,15.40
2022-08-23T04:53:32.807Z,15.30
2022-08-23T04:55:59.405Z,15.30
2022-08-23T04:58:26.039Z,15.40
2022-08-23T05:00:53.090Z,15.40
2022-08-23T05:03:20.081Z,15.40
2022-08-23T05:05:46.991Z,15.50
2022-08-23T05:08:13.697Z,15.50
2022-08-23T05:10:40.527Z,15.50
2022-08-23T05:13:07.351Z,15.50
2022-08-23T05:15:33.996Z,15.60
2022-08-23T05:18:00.900Z,15.60
2022-08-23T05:20:27.967Z,15.70
2022-08-23T05:22:54.644Z,15.70
2022-08-23T05:25:21.815Z,15.70
2022-08-23T05:27:48.554Z,15.80
2022-08-23T05:30:15.676Z,15.90
2022-08-23T05:32:42.773Z,16.00
2022-08-23T05:35:09.524Z,16.00
2022-08-23T05:37:36.172Z,16.10
2022-08-23T05:40:03.757Z,16.20
2022-08-23T05:42:30.419Z,16.30
2022-08-23T05:44:57.330Z,16.30
2022-08-23T05:47:27.018Z,16.40
2022-08-23T05:49:53.688Z,16.40
2022-08-23T05:52:20.568Z,16.50
2022-08-23T05:54:47.196Z,16.60
2022-08-23T05:57:13.844Z,16.70
2022-08-23T06:02:08.645Z,16.70
2022-08-23T06:04:36.002Z,16.90
2022-08-23T06:07:02.975Z,17.00
2022-08-23T06:09:29.608Z,17.10
2022-08-23T06:11:56.181Z,17.20
2022-08-23T06:14:23.514Z,17.20
2022-08-23T06:16:55.529Z,17.30
2022-08-23T06:19:23.765Z,17.40
2022-08-23T06:21:51.940Z,17.60
2022-08-23T06:24:19.483Z,17.70
2022-08-23T06:26:47.110Z,17.80
2022-08-23T06:29:16.848Z,17.90
2022-08-23T06:31:45.518Z,18.00
2022-08-23T06:34:20.533Z,18.10
2022-08-23T06:36:53.564Z,18.20
2022-08-23T06:39:22.807Z,18.30
2022-08-23T06:41:50.237Z,18.40
2022-08-23T06:44:18.866Z,18.60
2022-08-23T06:46:47.805Z,18.70
2022-08-23T06:49:15.042Z,18.90
2022-08-23T06:51:48.215Z,19.00
2022-08-23T06:54:16.630Z,19.20
2022-08-23T06:56:44.258Z,19.40
2022-08-23T06:59:12.095Z,19.50
2022-08-23T07:01:57.582Z,19.70
2022-08-23T07:04:27.418Z,19.70
2022-08-23T07:06:54.118Z,19.90
2022-08-23T07:09:20.834Z,20.00
2022-08-23T07:11:47.495Z,20.20
2022-08-23T07:14:16.710Z,20.30
2022-08-23T07:16:52.468Z,20.40
2022-08-23T07:19:21.953Z,20.40
2022-08-23T07:21:56.555Z,20.50
2022-08-23T07:24:23.867Z,20.40
2022-08-23T07:26:52.101Z,20.40
2022-08-23T07:29:20.587Z,20.70
2022-08-23T07:31:53.453Z,20.90
2022-08-23T07:34:21.073Z,21.10
2022-08-23T07:36:49.108Z,21.10
2022-08-23T07:39:17.281Z,21.30
2022-08-23T07:41:44.869Z,21.50
2022-08-23T07:44:12.976Z,21.50
2022-08-23T07:46:45.967Z,21.60
2022-08-23T07:49:13.149Z,21.60
2022-08-23T07:51:42.332Z,21.70
2022-08-23T07:54:11.211Z,21.80
2022-08-23T07:56:38.114Z,22.00
2022-08-23T07:59:05.758Z,21.90
2022-08-23T08:01:32.671Z,21.90
2022-08-23T08:04:02.005Z,22.10
2022-08-23T08:06:40.309Z,22.30
2022-08-23T08:09:07.943Z,22.50
2022-08-23T08:11:35.885Z,22.60
2022-08-23T08:14:09.086Z,22.70
2022-08-23T08:16:39.494Z,22.80
2022-08-23T08:19:09.113Z,22.90
2022-08-23T08:21:36.626Z,22.80
2022-08-23T08:24:10.396Z,22.90
2022-08-23T08:26:37.209Z,23.00
2022-08-23T08:29:05.270Z,23.20
2022-08-23T08:41:39.049Z,23.90
2022-08-23T08:44:19.538Z,24.00
2022-08-23T08:46:51.504Z,24.10
2022-08-23T08:49:40.137Z,24.30
2022-08-23T08:52:23.269Z,24.40
2022-08-23T08:54:53.268Z,24.50
2022-08-23T08:57:27.206Z,24.60
2022-08-23T09:00:04.035Z,24.60
2022-08-23T09:02:33.997Z,24.70
2022-08-23T09:05:12.217Z,24.80
2022-08-23T09:08:04.908Z,24.80
2022-08-23T09:10:43.487Z,24.90
2022-08-23T09:13:35.721Z,25.20
2022-08-23T09:16:11.180Z,25.30
2022-08-23T09:18:38.313Z,25.30
2022-08-23T09:21:08.499Z,25.40
2022-08-23T09:23:43.899Z,25.20
2022-08-23T09:26:32.689Z,25.40
2022-08-23T09:29:03.648Z,25.50
2022-08-23T09:31:47.357Z,25.80
2022-08-23T09:34:21.417Z,25.90
2022-08-23T09:36:48.543Z,26.10
2022-08-23T09:39:31.223Z,26.00
2022-08-23T09:41:59.115Z,26.00
2022-08-23T09:44:43.399Z,25.90
2022-08-23T09:47:14.713Z,26.10
2022-08-23T09:49:45.096Z,26.30
2022-08-23T09:52:22.320Z,26.40
2022-08-23T09:55:02.940Z,26.40
2022-08-23T09:57:33.319Z,26.60
2022-08-23T10:00:23.108Z,26.50
2022-08-23T10:02:50.299Z,26.60
2022-08-23T10:05:27.745Z,26.70
2022-08-23T10:08:00.557Z,26.80
2022-08-23T10:10:51.084Z,26.70
2022-08-23T10:13:18.509Z,26.60
2022-08-23T10:16:05.373Z,26.60
2022-08-23T10:18:44.053Z,26.70
2022-08-23T10:21:49.010Z,26.80
2022-08-23T10:24:44.813Z,27.20
2022-08-23T10:27:56.053Z,27.20
2022-08-23T10:30:55.625Z,27.20
2022-08-23T10:33:36.150Z,27.10
2022-08-23T10:36:24.566Z,27.20
2022-08-23T10:38:57.598Z,27.50
2022-08-23T10:41:40.403Z,27.70
2022-08-23T10:44:33.167Z,27.80
2022-08-23T10:47:02.730Z,27.90
2022-08-23T10:49:30.095Z,27.90
2022-08-23T10:51:59.602Z,27.20
2022-08-23T10:54:45.866Z,27.20
2022-08-23T10:57:16.742Z,27.50
2022-08-23T10:59:47.317Z,27.80
2022-08-23T11:02:39.339Z,28.10
2022-08-23T11:05:18.218Z,28.20
2022-08-23T11:08:01.516Z,28.50
2022-08-23T11:10:55.740Z,28.40
2022-08-23T11:13:27.238Z,28.20
2022-08-23T11:16:11.562Z,28.40
2022-08-23T11:18:45.204Z,28.20
2022-08-23T11:21:17.869Z,28.20
2022-08-23T11:23:59.315Z,28.40
2022-08-23T11:26:36.297Z,28.70
2022-08-23T11:29:10.768Z,28.70
2022-08-23T11:31:47.443Z,28.80
2022-08-23T11:34:30.081Z,28.70
2022-08-23T11:37:18.513Z,28.80
2022-08-23T11:40:00.575Z,28.80
2022-08-23T11:42:32.217Z,28.90
2022-08-23T11:44:58.861Z,28.90
2022-08-23T11:47:40.133Z,28.90
2022-08-23T11:50:36.778Z,28.40
2022-08-23T11:53:20.032Z,28.30
2022-08-23T11:56:04.542Z,28.50
2022-08-23T11:58:54.218Z,28.60
2022-08-23T12:01:34.439Z,28.50
2022-08-23T12:04:11.381Z,28.60
2022-08-23T12:06:55.681Z,28.70
2022-08-23T12:09:22.270Z,29.00
2022-08-23T12:11:54.933Z,29.20
2022-08-23T12:14:30.763Z,29.00
2022-08-23T12:17:04.157Z,29.10
2022-08-23T12:19:48.268Z,29.00
2022-08-23T12:22:18.968Z,29.20
2022-08-23T12:24:52.710Z,29.30
2022-08-23T12:27:42.319Z,29.40
2022-08-23T12:30:22.403Z,29.90
2022-08-23T12:33:11.558Z,29.60
2022-08-23T12:35:54.621Z,29.60
2022-08-23T12:38:27.298Z,29.80
2022-08-23T12:40:54.838Z,30.20
2022-08-23T12:43:24.344Z,30.40
2022-08-23T12:45:54.777Z,30.50
2022-08-23T12:48:26.192Z,30.50
2022-08-23T12:51:03.237Z,30.30
2022-08-23T12:53:36.234Z,30.20
2022-08-23T12:56:09.044Z,29.80
2022-08-23T12:58:39.426Z,29.70
2022-08-23T13:01:19.663Z,29.90
2022-08-23T13:03:50.350Z,29.90
2022-08-23T13:06:24.159Z,30.10
2022-08-23T13:09:09.307Z,30.50
2022-08-23T13:11:38.220Z,29.90
2022-08-23T13:14:24.658Z,29.80
2022-08-23T13:16:51.884Z,29.50
2022-08-23T13:19:30.807Z,29.40
2022-08-23T13:22:19.438Z,29.90
2022-08-23T13:25:32.320Z,30.20
2022-08-23T13:27:54.033Z,30.50
2022-08-23T13:30:24.927Z,30.70
2022-08-23T13:33:13.449Z,31.10
2022-08-23T13:35:49.604Z,31.30
2022-08-23T13:38:29.673Z,31.80
2022-08-23T13:41:13.743Z,31.10
2022-08-23T13:43:43.425Z,31.00
2022-08-23T13:46:22.236Z,30.50
2022-08-23T13:49:17.702Z,30.30
2022-08-23T13:52:37.869Z,30.50
2022-08-23T13:54:53.081Z,30.90
2022-08-23T13:57:21.871Z,31.10
2022-08-23T13:59:54.123Z,31.30
2022-08-23T14:02:23.367Z,31.70
2022-08-23T14:04:50.669Z,32.10
2022-08-23T14:07:17.506Z,31.30
2022-08-23T14:09:44.282Z,31.00
2022-08-23T14:12:23.860Z,30.60
2022-08-23T14:14:50.953Z,30.70
2022-08-23T14:17:20.453Z,30.70
2022-08-23T14:20:32.999Z,31.00
2022-08-23T14:22:35.819Z,31.50
2022-08-23T14:25:02.790Z,31.10
2022-08-23T14:27:29.567Z,31.10
2022-08-23T14:29:56.227Z,31.20
2022-08-23T14:32:22.859Z,31.10
2022-08-23T14:34:49.738Z,30.80
2022-08-23T14:40:04.766Z,30.20
2022-08-23T14:42:31.757Z,29.70
2022-08-23T14:44:58.411Z,28.90
2022-08-23T14:47:25.183Z,29.00
2022-08-23T14:49:53.861Z,29.30
2022-08-23T14:52:21.176Z,29.40
2022-08-23T14:54:47.862Z,29.00
2022-08-23T14:57:14.508Z,28.90
2022-08-23T14:59:41.264Z,28.70
2022-08-23T15:02:11.545Z,29.00
2022-08-23T15:04:39.534Z,29.70
2022-08-23T15:07:17.761Z,30.20
2022-08-23T15:09:49.259Z,30.30
2022-08-23T15:15:08.162Z,30.40
2022-08-23T15:17:52.179Z,30.60
2022-08-23T15:20:25.408Z,30.90
2022-08-23T15:22:55.243Z,30.80
2022-08-23T15:25:23.569Z,30.70
2022-08-23T15:27:51.534Z,30.60
2022-08-23T15:30:18.703Z,30.80
2022-08-23T15:32:52.520Z,30.50
2022-08-23T15:35:25.398Z,30.60
2022-08-23T15:37:54.431Z,30.30
2022-08-23T15:40:21.243Z,30.50
2022-08-23T15:42:47.968Z,30.60
2022-08-23T15:45:14.718Z,30.80
2022-08-23T15:47:51.551Z,31.10
2022-08-23T15:50:21.635Z,31.20
2022-08-23T15:52:48.282Z,31.10
2022-08-23T15:55:15.692Z,31.10
2022-08-23T15:57:45.967Z,30.70
2022-08-23T16:00:14.799Z,30.00
2022-08-23T16:03:06.378Z,29.70
2022-08-23T16:05:28.058Z,29.80
2022-08-23T16:07:58.188Z,29.90
2022-08-23T16:10:28.103Z,29.70
2022-08-23T16:12:55.246Z,29.80
2022-08-23T16:15:22.129Z,31.00
2022-08-23T16:17:48.801Z,32.20
2022-08-23T16:20:15.582Z,32.90
2022-08-23T16:22:42.240Z,33.60
2022-08-23T16:27:36.516Z,34.40
2022-08-23T16:30:05.530Z,34.90
2022-08-23T16:32:32.178Z,34.70
2022-08-23T16:34:58.822Z,32.90
2022-08-23T16:37:25.603Z,31.90
2022-08-23T16:39:52.307Z,30.80
2022-08-23T16:42:19.070Z,30.30
2022-08-23T16:44:45.702Z,29.80
2022-08-23T16:47:12.719Z,29.20
2022-08-23T16:52:08.175Z,28.60
2022-08-23T16:54:35.069Z,28.60
2022-08-23T16:57:01.991Z,28.40
2022-08-23T16:59:29.674Z,28.30
2022-08-23T17:01:59.646Z,28.40
2022-08-23T17:04:30.176Z,28.40
2022-08-23T17:06:58.457Z,28.40
2022-08-23T17:09:27.270Z,28.30
2022-08-23T17:11:54.764Z,28.10
2022-08-23T17:14:23.992Z,28.20
2022-08-23T17:16:50.710Z,28.20
2022-08-23T17:19:17.327Z,28.20
2022-08-23T17:21:44.753Z,28.20
2022-08-23T17:24:11.396Z,28.20
2022-08-23T17:26:38.044Z,28.10
2022-08-23T17:29:05.048Z,28.00
2022-08-23T17:31:31.828Z,27.90
2022-08-23T17:34:03.161Z,27.90
2022-08-23T17:36:35.819Z,27.80
2022-08-23T17:39:12.658Z,27.70
2022-08-23T17:44:12.661Z,27.50
2022-08-23T17:46:42.991Z,27.40
2022-08-23T17:49:10.876Z,27.30
2022-08-23T17:51:38.099Z,27.10
2022-08-23T17:54:05.135Z,27.10
2022-08-23T17:56:32.041Z,27.00
2022-08-23T17:58:58.888Z,26.80
2022-08-23T18:01:26.431Z,26.70
2022-08-23T18:03:53.468Z,26.60
2022-08-23T18:06:20.574Z,26.40
2022-08-23T18:08:47.346Z,26.30
2022-08-23T18:11:15.622Z,26.10
2022-08-23T18:13:42.560Z,25.90
2022-08-23T18:16:09.274Z,25.70
2022-08-23T18:18:35.958Z,25.50
2022-08-23T18:21:07.624Z,25.30
2022-08-23T18:26:30.892Z,25.00
2022-08-23T18:28:58.589Z,24.80
2022-08-23T18:31:27.249Z,24.70
2022-08-23T18:33:59.740Z,24.60
2022-08-23T18:36:28.106Z,24.50
2022-08-23T18:38:54.685Z,24.30
2022-08-23T18:41:21.432Z,24.10
2022-08-23T18:43:48.040Z,23.90
2022-08-23T18:46:14.861Z,23.80
2022-08-23T18:48:41.510Z,23.60
2022-08-23T18:51:16.318Z,23.50
2022-08-23T18:53:44.641Z,23.40
2022-08-23T18:56:11.245Z,23.20
2022-08-23T18:58:37.813Z,23.10
2022-08-23T19:01:20.922Z,23.00
2022-08-23T19:03:47.793Z,23.00
2022-08-23T19:06:14.735Z,22.90
2022-08-23T19:08:41.340Z,22.70
2022-08-23T19:11:08.462Z,22.60
2022-08-23T19:13:35.184Z,22.50
2022-08-23T19:16:02.683Z,22.40
2022-08-23T19:18:29.485Z,22.40
2022-08-23T19:20:56.095Z,22.30
2022-08-23T19:23:22.754Z,22.20
2022-08-23T19:25:49.384Z,22.30
2022-08-23T19:28:18.060Z,22.30
2022-08-23T19:30:44.696Z,22.10
2022-08-23T19:33:12.120Z,22.00
2022-08-23T19:35:39.779Z,22.00
2022-08-23T19:38:06.459Z,21.90
2022-08-23T19:40:34.171Z,21.80
2022-08-23T19:43:01.328Z,21.80
2022-08-23T19:45:29.457Z,21.70
2022-08-23T19:47:59.769Z,21.60
2022-08-23T19:50:27.373Z,21.40
2022-08-23T19:52:54.243Z,21.70
2022-08-23T19:55:21.577Z,21.60
2022-08-23T19:57:48.182Z,21.50
2022-08-23T20:00:19.371Z,21.40
2022-08-23T20:02:48.091Z,21.20
2022-08-23T20:05:15.936Z,21.10
2022-08-23T20:07:42.919Z,20.90
2022-08-23T20:10:11.943Z,20.80
2022-08-23T20:12:39.312Z,20.70
2022-08-23T20:15:06.489Z,20.70
2022-08-23T20:17:33.055Z,20.60
2022-08-23T20:19:59.671Z,20.50
2022-08-23T20:22:44.666Z,20.50
2022-08-23T20:25:11.350Z,20.40
2022-08-23T20:27:38.228Z,20.30
2022-08-23T20:30:08.134Z,20.20
2022-08-23T20:32:35.516Z,20.20
2022-08-23T20:35:04.614Z,20.10
2022-08-23T20:37:31.343Z,20.00
2022-08-23T20:39:58.044Z,20.00
2022-08-23T20:42:24.922Z,20.00
2022-08-23T20:44:51.546Z,20.00
2022-08-23T20:47:18.329Z,19.90
2022-08-23T20:49:45.185Z,19.90
2022-08-23T20:52:11.986Z,19.80
2022-08-23T20:54:38.621Z,19.80
2022-08-23T20:57:05.386Z,19.70
2022-08-23T20:59:31.998Z,19.60
2022-08-23T21:01:59.180Z,19.60
2022-08-23T21:04:29.966Z,19.50
2022-08-23T21:06:57.458Z,19.40
2022-08-23T21:09:29.097Z,19.40
2022-08-23T21:11:56.833Z,19.40
2022-08-23T21:14:23.619Z,19.40
2022-08-23T21:16:50.279Z,19.40
2022-08-23T21:19:17.220Z,19.40
2022-08-23T21:21:43.887Z,19.50
2022-08-23T21:24:11.298Z,19.50
2022-08-23T21:26:38.632Z,19.40
2022-08-23T21:29:07.545Z,19.30
2022-08-23T21:31:34.990Z,19.20
2022-08-23T21:34:01.772Z,19.10
2022-08-23T21:36:29.049Z,19.10
2022-08-23T21:38:55.994Z,19.00
2022-08-23T21:41:48.965Z,19.00
2022-08-23T21:44:19.161Z,19.00
2022-08-23T21:46:46.637Z,19.00
2022-08-23T21:49:13.416Z,19.30
2022-08-23T21:51:41.595Z,19.40
2022-08-23T21:54:09.488Z,19.70
2022-08-23T21:56:37.239Z,19.90
2022-08-23T21:59:06.628Z,20.10
2022-08-23T22:01:35.548Z,20.10
2022-08-23T22:04:04.571Z,20.30
2022-08-23T22:06:32.100Z,20.20
2022-08-23T22:08:58.763Z,20.20
2022-08-23T22:11:25.341Z,20.10
2022-08-23T22:13:53.721Z,20.20
2022-08-23T22:16:20.780Z,20.00
2022-08-23T22:18:47.446Z,20.00
2022-08-23T22:21:14.092Z,19.90
2022-08-23T22:23:43.323Z,19.60
2022-08-23T22:26:11.582Z,19.60
2022-08-23T22:28:38.252Z,19.60
2022-08-23T22:31:06.715Z,19.70
2022-08-23T22:33:33.391Z,19.60
2022-08-23T22:36:09.150Z,19.40
2022-08-23T22:38:35.999Z,19.10
2022-08-23T22:41:02.604Z,19.10
2022-08-23T22:43:29.355Z,19.00
2022-08-23T22:45:58.946Z,18.90
2022-08-23T22:48:29.252Z,18.80
2022-08-23T22:51:18.317Z,18.80
2022-08-23T22:53:48.423Z,18.90
2022-08-23T22:56:18.598Z,18.80
2022-08-23T22:58:45.319Z,18.80
2022-08-23T23:01:23.571Z,18.70
2022-08-23T23:03:51.865Z,18.70
2022-08-23T23:06:19.558Z,18.60
2022-08-23T23:08:46.229Z,18.60
2022-08-23T23:11:14.111Z,18.50
2022-08-23T23:13:41.316Z,18.40
2022-08-23T23:16:13.330Z,18.30
2022-08-23T23:18:40.960Z,18.20
2022-08-23T23:21:09.509Z,18.20
2022-08-23T23:23:37.519Z,18.10
2022-08-23T23:26:04.619Z,18.10
2022-08-23T23:28:31.337Z,18.10
2022-08-23T23:30:59.212Z,18.10
2022-08-23T23:33:27.315Z,18.10
2022-08-23T23:35:54.074Z,18.00
2022-08-23T23:38:20.765Z,18.00
2022-08-23T23:40:47.481Z,18.10
2022-08-23T23:43:14.039Z,18.10
2022-08-23T23:45:41.272Z,18.10
2022-08-23T23:48:08.471Z,18.10
2022-08-23T23:50:36.530Z,18.10
2022-08-23T23:53:04.262Z,18.20
2022-08-23T23:55:30.943Z,18.10
2022-08-23T23:57:58.463Z,18.00
